Time;durP1;ratioP1;P1;durP2;ratioP2;P2;SDS_P1;SDS_P2;PMS_P1;PMS_P2;Temp;Humidity;BMP_temperature;BMP_pressure;BME280_temperature;BME280_humidity;BME280_pressure;Samples;Min_cycle;Max_cycle;Signal;HPM_P1;HPM_P2
2022/10/04 04:55:23;;;;;;;9.45;4.97;;;;;;;9.18;95.15;99977.16;1703877;81;26215;-67
2022/10/04 04:57:54;;;;;;;8.70;4.40;;;;;;;9.22;95.15;99980.84;1710186;83;25631;-72
2022/10/04 05:00:28;;;;;;;8.55;4.22;;;;;;;9.22;95.26;99984.34;1718198;83;25926;-72
2022/10/04 05:02:59;;;;;;;11.45;4.35;;;;;;;9.24;95.12;99982.12;1719584;82;25701;-72
2022/10/04 05:05:29;;;;;;;8.95;4.70;;;;;;;9.27;95.16;99987.47;1717033;83;27927;-72
2022/10/04 05:08:21;;;;;;;6.25;4.37;;;;;;;9.29;95.15;99990.09;1710037;83;25717;-71
2022/10/04 05:11:11;;;;;;;7.62;4.75;;;;;;;9.30;95.07;99995.75;1685705;83;25774;-73
2022/10/04 05:13:49;;;;;;;8.13;4.75;;;;;;;9.32;95.20;99994.09;1718633;83;25777;-71
2022/10/04 05:16:24;;;;;;;12.15;4.17;;;;;;;9.34;95.14;99998.06;1718586;81;25711;-70
2022/10/04 05:19:05;;;;;;;6.30;3.62;;;;;;;9.35;95.14;100003.72;1701609;81;27982;-71
2022/10/04 05:21:34;;;;;;;11.08;4.45;;;;;;;9.39;95.10;100000.41;1714088;81;25394;-72
2022/10/04 05:24:22;;;;;;;;;;;;;;;9.41;95.06;100007.08;1721873;83;25553;-73
2022/10/04 05:26:56;;;;;;;7.35;3.85;;;;;;;9.44;95.13;100007.82;1719912;81;26576;-73
2022/10/04 05:29:26;;;;;;;6.85;4.20;;;;;;;9.45;95.19;100009.96;1719482;81;25734;-70
2022/10/04 05:32:27;;;;;;;7.70;4.00;;;;;;;9.48;95.11;100015.57;1719888;81;27343;-71
2022/10/04 05:34:54;;;;;;;5.00;3.33;;;;;;;9.49;95.14;100017.14;1710742;83;25652;-72
2022/10/04 05:37:37;;;;;;;6.50;3.70;;;;;;;9.51;95.04;100029.78;1719873;83;25733;-73
2022/10/04 05:40:22;;;;;;;9.18;4.03;;;;;;;9.50;94.94;100023.33;1710391;81;25951;-73
2022/10/04 05:42:53;;;;;;;6.03;3.87;;;;;;;9.53;95.02;100027.59;1711890;82;25640;-71
2022/10/04 05:45:27;;;;;;;7.95;4.22;;;;;;;9.56;95.01;100034.27;1702703;83;26015;-72
2022/10/04 05:48:00;;;;;;;5.62;3.95;;;;;;;9.58;94.94;100045.55;1719238;81;25605;-72
2022/10/04 05:50:43;;;;;;;10.48;4.80;;;;;;;9.61;94.76;100048.98;1720264;82;25572;-71
2022/10/04 05:53:27;;;;;;;18.00;11.33;;;;;;;9.64;94.82;100046.23;1715012;83;26506;-72
2022/10/04 05:56:32;;;;;;;21.25;12.45;;;;;;;9.65;94.79;100045.93;1719151;83;25441;-72
2022/10/04 05:59:31;;;;;;;11.90;4.25;;;;;;;9.69;94.80;100050.16;1652601;85;27340;-71
2022/10/04 06:02:30;;;;;;;6.65;4.22;;;;;;;9.72;94.79;100056.27;1651866;85;25855;-73
2022/10/04 06:05:19;;;;;;;7.75;4.12;;;;;;;9.73;94.64;100061.93;1663152;85;25713;-71
2022/10/04 06:08:10;;;;;;;6.43;3.83;;;;;;;9.76;94.51;100069.42;1657424;85;25916;-72
2022/10/04 06:10:48;;;;;;;7.85;4.53;;;;;;;9.77;94.45;100074.27;1652743;85;25723;-71
2022/10/04 06:13:27;;;;;;;4.62;3.77;;;;;;;9.78;94.43;100078.57;1651769;85;27329;-71
2022/10/04 06:16:26;;;;;;;7.08;4.00;;;;;;;9.79;94.36;100077.45;1647443;85;27216;-71
2022/10/04 06:19:29;;;;;;;9.68;3.55;;;;;;;9.82;94.43;100083.59;1653475;85;25753;-72
2022/10/04 06:22:16;;;;;;;8.48;3.95;;;;;;;9.85;94.46;100087.81;1648925;85;26503;-71
2022/10/04 06:25:05;;;;;;;7.08;3.75;;;;;;;9.90;94.61;100080.14;1646995;86;25869;-70
2022/10/04 06:27:52;;;;;;;6.85;4.08;;;;;;;9.97;94.74;100086.46;1648180;86;27616;-71
2022/10/04 06:30:22;;;;;;;5.40;3.40;;;;;;;10.03;94.80;100084.67;1646707;85;25827;-71
2022/10/04 06:33:20;;;;;;;6.40;3.98;;;;;;;10.15;95.27;100088.15;1648616;86;29455;-72
2022/10/04 06:36:19;;;;;;;11.18;4.40;;;;;;;10.26;95.53;100095.42;1650303;86;25925;-72
2022/10/04 06:38:57;;;;;;;6.42;3.77;;;;;;;10.38;94.72;100101.63;1543522;91;25549;-72
2022/10/04 06:42:00;;;;;;;6.53;4.07;;;;;;;10.44;94.31;100097.13;1573849;91;27358;-71
2022/10/04 06:44:35;;;;;;;6.95;4.10;;;;;;;10.53;94.40;100102.56;1570888;89;25741;-73
2022/10/04 06:47:39;;;;;;;9.98;4.03;;;;;;;10.63;94.50;100094.72;1574682;89;25515;-71
2022/10/04 06:50:50;;;;;;;7.05;3.87;;;;;;;10.71;94.13;100103.95;1574472;89;26016;-71
2022/10/04 06:53:34;;;;;;;10.78;3.95;;;;;;;10.73;93.30;100117.42;1570990;89;25863;-71
2022/10/04 06:56:14;;;;;;;6.22;4.10;;;;;;;10.74;92.70;100120.35;1571196;89;27423;-70
2022/10/04 06:59:01;;;;;;;4.17;3.55;;;;;;;10.76;92.53;100122.75;1571895;89;25723;-69
2022/10/04 07:01:32;;;;;;;4.53;3.27;;;;;;;10.76;92.38;100122.21;1567401;89;25614;-68
2022/10/04 07:04:25;;;;;;;7.35;3.52;;;;;;;10.77;92.12;100121.65;1569141;91;25988;-70
2022/10/04 07:07:33;;;;;;;5.70;3.62;;;;;;;10.76;91.86;100120.05;1561109;89;25732;-69
2022/10/04 07:10:29;;;;;;;8.00;4.28;;;;;;;10.75;91.85;100128.72;1572340;89;27373;-68
2022/10/04 07:13:19;;;;;;;11.85;3.80;;;;;;;10.76;91.91;100139.80;1616183;87;25654;-68
2022/10/04 07:16:03;;;;;;;5.65;3.25;;;;;;;10.76;91.74;100137.62;1640206;86;25501;-67
2022/10/04 07:18:41;;;;;;;5.17;3.40;;;;;;;10.77;91.71;100144.64;1638191;85;25417;-67
2022/10/04 07:21:12;;;;;;;6.05;3.98;;;;;;;10.77;91.64;100144.64;1584890;88;25764;-67
2022/10/04 07:23:46;;;;;;;12.20;6.95;;;;;;;10.76;91.51;100157.91;1582181;90;27400;-68
2022/10/04 07:26:27;;;;;;;5.95;3.65;;;;;;;10.75;91.40;100150.36;1585582;89;25938;-68
2022/10/04 07:31:48;;;;;;;4.90;3.95;;;;;;;10.83;91.54;100161.78;1586044;89;26628;-67
2022/10/04 07:34:25;;;;;;;5.58;4.10;;;;;;;10.95;92.11;100161.74;1584277;89;25480;-68
2022/10/04 07:37:02;;;;;;;4.80;4.08;;;;;;;11.11;92.39;100149.34;1574845;89;27297;-67
2022/10/04 07:40:00;;;;;;;5.92;3.85;;;;;;;11.34;93.29;100166.27;1578968;90;26650;-67
2022/10/04 07:42:47;;;;;;;4.95;3.20;;;;;;;11.83;94.14;100154.47;1577214;90;25463;-68
2022/10/04 07:45:28;;;;;;;5.62;4.00;;;;;;;12.46;93.92;100154.83;1581302;90;25956;-67
2022/10/04 07:48:25;;;;;;;9.60;5.62;;;;;;;13.18;95.68;100157.12;1587665;90;25843;-67
2022/10/04 07:51:15;;;;;;;7.67;3.87;;;;;;;13.81;92.05;100162.57;1589481;89;27501;-70
2022/10/04 07:53:53;;;;;;;7.92;3.60;;;;;;;14.03;88.92;100169.32;1544732;91;25714;-69
2022/10/04 07:56:50;;;;;;;6.70;4.58;;;;;;;13.99;86.08;100163.77;1570458;91;25491;-67
2022/10/04 07:59:37;;;;;;;9.65;3.20;;;;;;;13.91;84.46;100175.51;1585580;88;25951;-69
2022/10/04 08:02:29;;;;;;;4.80;2.92;;;;;;;14.16;84.94;100171.73;1542276;92;25652;-69
2022/10/04 08:05:05;;;;;;;6.28;2.90;;;;;;;14.19;83.75;100173.80;1525241;92;27372;-68
2022/10/04 08:07:58;;;;;;;3.77;2.83;;;;;;;14.13;82.70;100181.14;1548083;91;25494;-69
2022/10/04 08:11:04;;;;;;;7.60;2.85;;;;;;;13.99;81.50;100190.38;1539586;92;25575;-69
2022/10/04 08:13:44;;;;;;;5.87;2.55;;;;;;;13.99;81.96;100183.58;1533947;92;26065;-68
2022/10/04 08:16:22;;;;;;;3.75;2.20;;;;;;;14.20;81.76;100180.05;1547344;91;25704;-69
2022/10/04 08:18:57;;;;;;;5.92;2.83;;;;;;;14.20;80.64;100177.33;1547526;91;27575;-69
2022/10/04 08:21:31;;;;;;;5.45;2.72;;;;;;;14.17;80.53;100183.44;1491587;92;28775;-69
2022/10/04 08:24:33;;;;;;;3.90;2.50;;;;;;;14.11;79.62;100197.00;1535140;92;25625;-69
2022/10/04 08:27:16;;;;;;;4.33;2.30;;;;;;;14.22;80.92;100190.56;1567815;90;26848;-70
2022/10/04 08:29:56;;;;;;;4.62;2.45;;;;;;;14.57;79.96;100195.07;1569902;90;25908;-68
2022/10/04 08:33:05;;;;;;;9.45;4.58;;;;;;;14.88;79.92;100197.30;1611388;88;27454;-70
2022/10/04 08:35:37;;;;;;;5.97;3.80;;;;;;;14.93;78.20;100189.45;1581026;86;25856;-69
2022/10/04 08:38:15;;;;;;;3.27;2.12;;;;;;;15.19;77.60;100204.09;1694086;84;25576;-69
2022/10/04 08:41:08;;;;;;;5.13;2.77;;;;;;;15.54;77.21;100201.42;1693440;83;25991;-69
2022/10/04 08:44:12;;;;;;;5.22;1.98;;;;;;;15.63;76.76;100206.16;1688314;84;25464;-68
2022/10/04 08:46:59;;;;;;;2.77;2.50;;;;;;;15.62;75.93;100205.95;1665824;84;27622;-68
2022/10/04 08:49:53;;;;;;;4.03;2.85;;;;;;;15.50;74.20;100207.55;1672100;85;25605;-69
2022/10/04 08:52:42;;;;;;;2.70;2.15;;;;;;;15.37;73.89;100208.71;1620104;88;25594;-68
2022/10/04 08:55:41;;;;;;;6.33;2.42;;;;;;;15.30;73.47;100220.19;1610391;88;26143;-70
2022/10/04 08:58:22;;;;;;;6.50;2.25;;;;;;;15.13;73.29;100224.52;1620232;88;26868;-68
2022/10/04 09:01:03;;;;;;;5.30;2.52;;;;;;;14.97;72.87;100225.78;1619858;88;27350;-70
2022/10/04 09:04:03;;;;;;;3.35;1.95;;;;;;;14.73;72.85;100226.56;1603334;88;25767;-70
2022/10/04 09:06:52;;;;;;;7.70;2.37;;;;;;;14.56;73.24;100229.67;1604839;87;25806;-71
2022/10/04 09:09:54;;;;;;;7.62;2.62;;;;;;;14.35;73.22;100235.73;1618506;87;26778;-71
2022/10/04 09:12:51;;;;;;;3.83;2.40;;;;;;;14.14;73.44;100237.14;1618826;87;25526;-69
2022/10/04 09:15:35;;;;;;;3.58;2.20;;;;;;;13.92;73.26;100246.45;1607086;88;27355;-69
2022/10/04 09:18:13;;;;;;;6.25;2.58;;;;;;;13.66;73.64;100246.08;1617461;87;25876;-68
2022/10/04 09:21:09;;;;;;;3.85;2.10;;;;;;;13.51;74.10;100247.45;1618566;88;25634;-70
2022/10/04 09:24:15;;;;;;;6.15;2.27;;;;;;;13.36;74.29;100247.45;1601820;88;26073;-70
2022/10/04 09:26:53;;;;;;;4.53;2.15;;;;;;;13.23;74.58;100247.13;1602211;87;25806;-69
2022/10/04 09:29:49;;;;;;;3.62;2.17;;;;;;;13.19;75.41;100248.31;1644738;85;28043;-69
2022/10/04 09:32:47;;;;;;;3.62;1.92;;;;;;;13.20;75.59;100253.99;1688743;84;25775;-70
2022/10/04 09:35:25;;;;;;;4.22;2.17;;;;;;;13.21;75.62;100256.14;1689495;83;25698;-71
2022/10/04 09:38:06;;;;;;;4.08;2.00;;;;;;;13.19;75.76;100257.82;1691392;83;25940;-68
2022/10/04 09:40:52;;;;;;;2.70;2.08;;;;;;;13.20;76.06;100258.06;1689682;83;25583;-69
2022/10/04 09:43:56;;;;;;;2.12;1.82;;;;;;;13.24;76.04;100263.64;1683331;83;26661;-68
2022/10/04 09:47:05;;;;;;;3.92;1.98;;;;;;;13.31;75.94;100263.13;1661029;84;27291;-69
2022/10/04 09:50:16;;;;;;;4.10;2.42;;;;;;;13.32;75.46;100259.33;1683090;83;25779;-69
2022/10/04 09:52:52;;;;;;;3.37;1.70;;;;;;;13.28;75.42;100263.23;1687063;83;26038;-68
2022/10/04 09:55:54;;;;;;;3.98;2.10;;;;;;;13.23;75.08;100271.00;1626745;87;25605;-71
2022/10/04 09:58:35;;;;;;;2.90;1.60;;;;;;;13.17;74.96;100276.94;1698284;83;27342;-71
2022/10/04 10:01:28;;;;;;;2.35;1.85;;;;;;;13.10;74.84;100278.02;1698648;83;25786;-67
2022/10/04 10:04:31;;;;;;;3.25;1.75;;;;;;;13.03;74.97;100274.45;1660482;85;25747;-69
2022/10/04 10:07:18;;;;;;;3.65;1.75;;;;;;;12.96;75.22;100285.81;1681283;85;26710;-69
2022/10/04 10:16:18;;;;;;;6.07;2.00;;;;;;;12.79;75.12;100292.09;1671031;84;25453;-67
2022/10/04 10:19:04;;;;;;;2.05;1.85;;;;;;;12.73;75.07;100296.08;1676048;84;25856;-67
2022/10/04 10:22:14;;;;;;;5.40;1.90;;;;;;;12.71;75.32;100298.33;1660759;85;26047;-66
2022/10/04 10:25:20;;;;;;;3.72;2.10;;;;;;;12.69;75.43;100301.36;1665937;84;25669;-67
2022/10/04 10:28:19;;;;;;;6.95;2.15;;;;;;;12.75;75.98;100300.63;1676463;85;27458;-66
2022/10/04 10:31:38;;;;;;;8.00;2.45;;;;;;;12.87;76.19;100304.84;1678681;85;25826;-65
2022/10/04 10:34:25;;;;;;;3.22;1.85;;;;;;;13.01;76.30;100305.99;1585450;89;25885;-66
2022/10/04 10:37:36;;;;;;;2.22;1.70;;;;;;;13.89;82.21;100309.06;1539755;91;26142;-65
2022/10/04 10:40:08;;;;;;;3.70;1.82;;;;;;;15.24;81.92;100305.25;1518977;93;25665;-68
2022/10/04 10:42:58;;;;;;;2.52;1.57;;;;;;;16.60;78.03;100311.20;1517497;93;27437;-66
2022/10/04 10:45:39;;;;;;;5.92;1.72;;;;;;;16.87;73.71;100315.64;1518809;94;25829;-66
2022/10/04 10:48:18;;;;;;;8.88;1.98;;;;;;;16.92;70.76;100309.92;1514851;93;25433;-65
2022/10/04 10:51:09;;;;;;;6.40;1.60;;;;;;;16.84;69.52;100317.67;1518423;93;26149;-66
2022/10/04 10:54:16;;;;;;;2.92;1.60;;;;;;;16.73;69.16;100310.58;1511942;94;25819;-65
2022/10/04 10:57:11;;;;;;;4.83;1.80;;;;;;;17.02;70.19;100314.08;1528924;93;27404;-67
2022/10/04 11:00:12;;;;;;;1.90;1.55;;;;;;;17.27;69.00;100312.75;1536131;91;25687;-66
2022/10/04 11:03:05;;;;;;;2.35;1.50;;;;;;;17.26;67.41;100316.62;1544027;91;25523;-66
2022/10/04 11:05:56;;;;;;;3.85;1.32;;;;;;;17.24;67.46;100312.09;1539110;93;25950;-66
2022/10/04 11:09:08;;;;;;;3.08;1.90;;;;;;;17.48;67.12;100315.19;1522055;91;26212;-66
2022/10/04 11:12:11;;;;;;;1.55;1.40;;;;;;;17.47;64.71;100321.01;1573795;90;27430;-67
2022/10/04 11:14:59;;;;;;;2.70;1.80;;;;;;;17.25;64.19;100326.56;1632318;84;25992;-66
2022/10/04 11:18:05;;;;;;;2.08;1.90;;;;;;;16.92;63.17;100324.36;1672422;85;25633;-66
2022/10/04 11:20:58;;;;;;;2.17;1.57;;;;;;;16.72;63.93;100333.00;1634345;86;25940;-66
2022/10/04 11:23:40;;;;;;;3.10;2.08;;;;;;;16.59;64.46;100345.91;1675196;84;25829;-66
2022/10/04 11:26:18;;;;;;;2.02;1.62;;;;;;;16.51;64.47;100350.95;1614989;88;28234;-66
2022/10/04 11:28:59;;;;;;;4.85;1.67;;;;;;;16.28;63.46;100346.61;1597558;88;25759;-67
2022/10/04 11:32:01;;;;;;;1.45;1.32;;;;;;;16.12;63.98;100360.16;1550078;90;25770;-66
2022/10/04 11:34:49;;;;;;;1.92;1.42;;;;;;;16.02;63.66;100361.45;1536797;91;26493;-64
2022/10/04 11:37:48;;;;;;;2.63;2.03;;;;;;;15.96;63.77;100359.31;1538645;93;25827;-66
2022/10/04 11:40:29;;;;;;;2.87;1.50;;;;;;;16.01;63.75;100359.07;1541613;91;27355;-66
2022/10/04 11:43:35;;;;;;;2.08;1.50;;;;;;;15.97;63.66;100369.06;1535668;91;25763;-66
2022/10/04 11:46:12;;;;;;;6.08;1.72;;;;;;;15.85;63.71;100367.14;1528331;91;25780;-66
2022/10/04 11:49:02;;;;;;;2.90;1.90;;;;;;;15.65;63.55;100362.82;1538366;91;25962;-66
2022/10/04 11:51:34;;;;;;;;;;;;;;;15.53;63.91;100364.73;1537440;91;25869;-65
2022/10/04 11:54:27;;;;;;;3.77;1.72;;;;;;;15.83;65.93;100374.88;1541990;92;27472;-66
2022/10/04 11:57:37;;;;;;;4.60;1.47;;;;;;;16.42;65.29;100376.24;1487935;94;25845;-66
2022/10/04 12:00:19;;;;;;;1.65;1.20;;;;;;;16.51;64.13;100376.88;1501834;94;26294;-67
2022/10/04 12:03:09;;;;;;;8.35;3.05;;;;;;;16.92;64.60;100376.85;1481120;94;25904;-68
2022/10/04 12:06:04;;;;;;;4.65;2.10;;;;;;;17.14;64.14;100377.62;1529774;93;25709;-67
2022/10/04 12:08:45;;;;;;;2.75;2.12;;;;;;;17.25;63.77;100374.40;1555900;90;29068;-66
2022/10/04 12:15:07;;;;;;;5.50;1.65;;;;;;;17.31;62.05;100377.86;1595077;89;25706;-66
2022/10/04 12:18:05;;;;;;;2.17;1.62;;;;;;;17.15;61.34;100380.59;1614192;88;26011;-66
2022/10/04 12:21:11;;;;;;;3.52;1.60;;;;;;;16.92;60.39;100373.54;1612717;88;25708;-69
2022/10/04 12:24:03;;;;;;;2.33;1.65;;;;;;;16.68;60.72;100399.59;1618280;88;27534;-65
2022/10/04 12:26:47;;;;;;;3.15;1.80;;;;;;;16.41;60.39;100399.21;1614114;88;25720;-64
2022/10/04 12:29:44;;;;;;;3.98;1.57;;;;;;;16.13;60.50;100402.70;1630257;88;25559;-65
2022/10/04 12:32:28;;;;;;;3.52;1.70;;;;;;;15.90;61.01;100401.58;1624433;88;26749;-67
2022/10/04 12:35:15;;;;;;;2.17;1.57;;;;;;;15.73;61.79;100397.91;1628423;86;25698;-66
2022/10/04 12:38:12;;;;;;;1.92;1.70;;;;;;;15.58;62.14;100393.95;1652504;86;28429;-67
2022/10/04 12:40:59;;;;;;;2.05;1.47;;;;;;;15.41;62.14;100405.86;1645380;85;25921;-66
2022/10/04 12:43:34;;;;;;;3.60;2.27;;;;;;;15.25;62.71;100407.06;1648929;85;25598;-65
2022/10/04 12:46:16;;;;;;;4.45;1.95;;;;;;;15.14;62.83;100408.65;1672070;84;26007;-67
2022/10/04 12:49:19;;;;;;;2.20;1.77;;;;;;;15.04;63.23;100413.16;1630183;86;25796;-63
2022/10/04 12:52:06;;;;;;;3.30;1.75;;;;;;;14.96;63.40;100414.04;1624845;86;27330;-64
2022/10/04 12:54:52;;;;;;;1.85;1.40;;;;;;;14.93;63.96;100414.95;1609738;88;25686;-66
2022/10/04 12:57:41;;;;;;;4.83;1.87;;;;;;;15.05;64.57;100418.82;1623294;86;25796;-65
2022/10/04 13:00:21;;;;;;;4.50;1.57;;;;;;;15.14;64.30;100419.55;1615698;86;26865;-65
2022/10/04 13:03:26;;;;;;;3.37;1.50;;;;;;;15.27;64.61;100414.36;1624076;86;25725;-64
2022/10/04 13:06:07;;;;;;;3.72;1.95;;;;;;;15.44;64.46;100417.45;1647070;86;27680;-66
2022/10/04 13:09:11;;;;;;;5.60;2.12;;;;;;;15.67;64.78;100416.44;1641046;87;25556;-64
2022/10/04 13:12:02;;;;;;;3.87;2.42;;;;;;;15.75;63.88;100418.02;1632646;87;25742;-65
2022/10/04 13:14:51;;;;;;;4.15;2.22;;;;;;;15.73;63.06;100418.94;1632177;87;26004;-61
2022/10/04 13:17:40;;;;;;;4.28;2.70;;;;;;;15.66;63.46;100424.41;1595175;88;25528;-66
2022/10/04 13:20:24;;;;;;;4.58;1.80;;;;;;;15.65;63.77;100432.34;1597976;88;27370;-64
2022/10/04 13:23:05;;;;;;;3.85;2.00;;;;;;;15.66;64.10;100433.95;1593148;88;26082;-69
2022/10/04 13:25:45;;;;;;;2.52;2.10;;;;;;;15.72;64.14;100429.06;1504964;94;25788;-65
2022/10/04 13:28:36;;;;;;;4.05;1.80;;;;;;;15.75;64.06;100437.11;1494769;94;26151;-64
2022/10/04 13:31:31;;;;;;;2.65;1.42;;;;;;;15.68;63.72;100442.58;1462233;97;25878;-66
2022/10/04 13:34:11;;;;;;;4.08;2.00;;;;;;;15.61;63.39;100443.72;1453495;97;27395;-65
2022/10/04 13:36:53;;;;;;;6.78;1.85;;;;;;;15.56;63.80;100447.21;1472900;95;25775;-67
2022/10/04 13:39:36;;;;;;;2.85;1.82;;;;;;;15.57;63.86;100443.36;1483619;95;25832;-66
2022/10/04 13:42:25;;;;;;;3.67;1.98;;;;;;;15.54;63.70;100441.31;1486905;96;26764;-65
2022/10/04 13:45:06;;;;;;;6.25;1.50;;;;;;;15.51;63.77;100444.16;1478064;96;25837;-67
2022/10/04 13:48:03;;;;;;;4.72;2.08;;;;;;;15.49;64.12;100453.22;1472597;96;28139;-65
2022/10/04 13:50:54;;;;;;;2.83;1.75;;;;;;;15.47;64.14;100452.77;1460138;96;25817;-67
2022/10/04 13:56:52;;;;;;;6.85;2.00;;;;;;;15.38;64.07;100456.95;1460417;96;26566;-66
2022/10/04 13:59:51;;;;;;;5.65;2.58;;;;;;;15.21;63.95;100453.84;1457289;96;25844;-66
2022/10/04 14:02:44;;;;;;;6.83;3.70;;;;;;;15.13;64.22;100454.72;1472948;93;27386;-65
2022/10/04 14:05:30;;;;;;;3.45;2.10;;;;;;;15.19;65.63;100458.84;1520349;93;25861;-68
2022/10/04 14:08:35;;;;;;;6.70;3.90;;;;;;;15.52;65.44;100460.72;1523053;91;25810;-67
2022/10/04 14:11:35;;;;;;;5.55;3.50;;;;;;;15.84;64.94;100458.30;1535148;91;26865;-67
2022/10/04 14:14:42;;;;;;;7.37;3.02;;;;;;;16.06;65.31;100465.23;1540955;91;25800;-67
2022/10/04 14:17:51;;;;;;;4.83;1.87;;;;;;;16.33;63.92;100469.19;1509894;93;29010;-66
2022/10/04 14:20:58;;;;;;;2.92;1.75;;;;;;;16.52;63.14;100467.80;1549326;90;25868;-67
2022/10/04 14:24:01;;;;;;;3.58;1.80;;;;;;;16.47;61.99;100474.86;1537357;92;25730;-66
2022/10/04 14:26:51;;;;;;;3.10;1.80;;;;;;;16.31;61.78;100467.93;1540754;91;26037;-65
2022/10/04 14:33:16;;;;;;;4.12;2.30;;;;;;;16.05;61.53;100473.97;1574469;90;27497;-66
2022/10/04 14:36:03;;;;;;;3.17;2.10;;;;;;;15.95;61.31;100483.97;1572117;89;25975;-68
2022/10/04 14:38:56;;;;;;;3.40;2.30;;;;;;;15.81;61.14;100482.94;1580031;89;25798;-69
2022/10/04 14:41:30;;;;;;;2.85;2.25;;;;;;;15.64;61.54;100486.64;1580542;90;27720;-66
2022/10/04 14:44:24;;;;;;;6.00;2.92;;;;;;;15.52;61.67;100482.53;1581108;89;25506;-68
2022/10/04 14:47:31;;;;;;;3.25;1.50;;;;;;;15.41;61.53;100485.45;1622103;87;27507;-70
2022/10/04 14:50:21;;;;;;;4.95;1.50;;;;;;;15.26;61.91;100488.27;1623323;87;25803;-73
2022/10/04 14:53:01;;;;;;;3.08;1.60;;;;;;;15.20;62.56;100500.50;1603119;87;25772;-70
2022/10/04 14:55:48;;;;;;;2.62;1.98;;;;;;;15.07;62.66;100500.45;1612701;87;25949;-72
2022/10/04 14:58:34;;;;;;;4.05;2.30;;;;;;;15.00;63.10;100503.47;1640693;85;25797;-70
2022/10/04 15:01:28;;;;;;;8.78;3.15;;;;;;;14.92;63.41;100499.70;1634467;86;27339;-71
2022/10/04 15:04:31;;;;;;;4.20;2.70;;;;;;;14.83;63.63;100507.95;1639715;85;25890;-72
2022/10/04 15:07:21;;;;;;;3.98;2.25;;;;;;;14.75;63.89;100510.16;1642130;86;26253;-71
2022/10/04 15:10:17;;;;;;;4.33;2.00;;;;;;;14.68;63.87;100513.98;1635549;87;25977;-71
2022/10/04 15:13:05;;;;;;;3.95;2.10;;;;;;;14.63;64.07;100520.41;1629824;86;25815;-70
2022/10/04 15:16:15;;;;;;;3.20;2.25;;;;;;;14.56;64.06;100516.83;1630327;87;27422;-71
2022/10/04 15:19:08;;;;;;;4.42;2.10;;;;;;;14.48;64.22;100523.69;1627516;87;25694;-71
2022/10/04 15:22:08;;;;;;;5.35;2.00;;;;;;;14.39;64.47;100523.73;1634867;87;25814;-70
2022/10/04 15:24:50;;;;;;;7.95;2.30;;;;;;;14.29;64.50;100524.12;1639406;86;25937;-70
2022/10/04 15:27:48;;;;;;;4.62;1.92;;;;;;;14.18;64.69;100527.75;1620807;87;25711;-69
2022/10/04 15:30:32;;;;;;;3.90;2.60;;;;;;;14.09;64.77;100536.52;1625118;87;27416;-70
2022/10/04 15:33:33;;;;;;;3.80;2.08;;;;;;;14.00;65.18;100539.28;1630635;87;25760;-70
2022/10/04 15:36:55;;;;;;;4.65;2.75;;;;;;;13.92;65.22;100544.19;1578374;89;25595;-70
2022/10/04 15:39:59;;;;;;;5.53;2.33;;;;;;;13.83;65.52;100547.72;1583213;89;26004;-70
2022/10/04 15:42:32;;;;;;;3.85;2.20;;;;;;;13.73;65.84;100549.43;1588450;88;25788;-69
2022/10/04 15:45:35;;;;;;;5.17;2.20;;;;;;;13.66;66.16;100548.34;1584085;89;28306;-69
2022/10/04 15:48:29;;;;;;;7.30;2.22;;;;;;;13.56;66.10;100563.06;1567679;90;25588;-67
2022/10/04 15:51:20;;;;;;;6.37;2.55;;;;;;;13.44;66.37;100562.36;1576358;90;25756;-66
2022/10/04 15:54:29;;;;;;;2.95;2.20;;;;;;;13.36;66.66;100568.02;1531933;93;26185;-68
2022/10/04 15:56:59;;;;;;;5.57;2.67;;;;;;;13.25;66.97;100568.89;1531624;93;25832;-67
2022/10/04 15:59:43;;;;;;;3.50;2.20;;;;;;;13.15;66.95;100576.00;1531091;93;27502;-69
2022/10/04 16:02:34;;;;;;;7.62;2.05;;;;;;;13.06;67.45;100582.78;1529683;93;25652;-70
2022/10/04 16:05:23;;;;;;;5.92;2.65;;;;;;;12.98;67.82;100587.65;1531158;92;25858;-68
2022/10/04 16:08:01;;;;;;;5.55;2.00;;;;;;;12.93;68.21;100594.59;1530855;93;26316;-68
2022/10/04 16:11:10;;;;;;;8.53;3.00;;;;;;;12.85;68.39;100595.38;1531960;92;25814;-66
2022/10/04 16:14:14;;;;;;;5.60;2.37;;;;;;;12.82;68.84;100598.17;1551258;89;27434;-67
2022/10/04 16:16:54;;;;;;;3.55;2.33;;;;;;;12.76;68.96;100602.70;1577182;89;37103;-67
2022/10/04 16:20:06;;;;;;;5.78;3.02;;;;;;;12.68;69.14;100605.63;1567816;90;25778;-67
2022/10/04 16:22:34;;;;;;;4.00;2.75;;;;;;;12.61;69.35;100609.36;1625214;86;26177;-67
2022/10/04 16:25:25;;;;;;;15.93;7.37;;;;;;;12.51;69.51;100611.27;1612214;87;25562;-68
2022/10/04 16:28:06;;;;;;;7.35;3.52;;;;;;;12.47;69.68;100616.27;1614728;87;27381;-66
2022/10/04 16:31:01;;;;;;;4.80;3.15;;;;;;;12.41;69.71;100622.94;1619856;85;25827;-67
2022/10/04 16:33:45;;;;;;;10.13;3.00;;;;;;;12.32;69.92;100622.33;1672206;84;25642;-70
2022/10/04 16:36:20;;;;;;;6.22;3.27;;;;;;;12.27;70.44;100630.61;1671610;83;25893;-70
2022/10/04 16:42:03;;;;;;;6.90;3.55;;;;;;;12.13;71.00;100627.20;1677616;84;27327;-69
2022/10/04 16:44:53;;;;;;;4.35;3.20;;;;;;;12.08;71.12;100627.33;1657261;84;25866;-65
2022/10/04 16:47:28;;;;;;;7.22;3.70;;;;;;;12.03;71.57;100629.61;1653807;84;25563;-65
2022/10/04 16:49:59;;;;;;;4.92;3.05;;;;;;;11.99;71.87;100635.98;1658231;85;26058;-66
2022/10/04 16:52:58;;;;;;;4.45;2.80;;;;;;;11.95;72.05;100633.89;1654623;84;25700;-68
2022/10/04 16:55:47;;;;;;;6.58;3.10;;;;;;;11.92;72.32;100640.48;1588439;89;27352;-70
2022/10/04 16:58:36;;;;;;;6.75;3.83;;;;;;;11.90;72.69;100646.72;1587977;90;25759;-67
2022/10/04 17:01:24;;;;;;;4.03;2.80;;;;;;;11.88;72.82;100638.89;1587139;89;25864;-67
2022/10/04 17:04:24;;;;;;;7.12;2.70;;;;;;;11.86;72.82;100648.45;1582368;88;26611;-69
2022/10/04 17:07:11;;;;;;;4.87;2.95;;;;;;;11.85;73.07;100649.55;1568698;90;25838;-65
2022/10/04 17:10:06;;;;;;;8.85;3.52;;;;;;;11.82;73.16;100656.41;1586938;88;27451;-69
2022/10/04 17:12:46;;;;;;;6.25;3.90;;;;;;;11.80;73.21;100654.56;1585895;90;26409;-69
2022/10/04 17:16:02;;;;;;;7.47;3.42;;;;;;;11.77;73.27;100657.88;1586474;89;26098;-68
2022/10/04 17:18:57;;;;;;;9.85;3.87;;;;;;;11.73;73.40;100658.23;1588433;90;26645;-69
2022/10/04 17:22:03;;;;;;;6.00;2.95;;;;;;;11.71;73.67;100657.75;1581849;90;25927;-66
2022/10/04 17:25:18;;;;;;;9.70;3.22;;;;;;;11.69;73.69;100658.61;1588371;88;27451;-70
2022/10/04 17:27:59;;;;;;;9.40;3.72;;;;;;;11.65;74.11;100657.08;1587299;90;25769;-66
2022/10/04 17:30:30;;;;;;;7.87;4.00;;;;;;;11.64;74.22;100670.36;1578518;88;25488;-67
2022/10/04 17:33:42;;;;;;;8.15;3.83;;;;;;;11.61;74.30;100669.61;1655360;84;26686;-67
2022/10/04 17:36:40;;;;;;;21.93;11.55;;;;;;;11.58;74.59;100662.92;1675910;84;25661;-70
2022/10/04 17:39:50;;;;;;;68.75;35.80;;;;;;;11.57;74.94;100668.64;1664030;84;27343;-70
2022/10/04 17:42:48;;;;;;;8.60;5.65;;;;;;;11.55;74.83;100674.92;1675181;84;25647;-70
2022/10/04 17:45:28;;;;;;;8.58;4.92;;;;;;;11.50;75.27;100670.98;1657009;84;25842;-71
2022/10/04 17:57:07;;;;;;;7.10;4.55;;;;;;;11.39;75.53;100671.73;1653390;84;25748;-63
2022/10/04 18:00:00;;;;;;;10.40;5.25;;;;;;;11.35;75.61;100673.47;1660932;85;25786;-64
2022/10/04 18:03:12;;;;;;;11.50;5.45;;;;;;;11.31;75.68;100674.63;1672182;85;25930;-63
2022/10/04 18:05:51;;;;;;;7.97;5.05;;;;;;;11.29;75.51;100681.44;1621834;87;25652;-64
2022/10/04 18:08:45;;;;;;;16.87;6.70;;;;;;;11.25;75.75;100684.52;1620911;87;27997;-66
2022/10/04 18:11:25;;;;;;;11.08;5.92;;;;;;;11.23;75.63;100691.59;1611598;87;25750;-66
2022/10/04 18:14:03;;;;;;;9.98;5.78;;;;;;;11.20;76.17;100685.42;1618739;87;26246;-66
2022/10/04 18:16:55;;;;;;;14.28;5.87;;;;;;;11.17;76.01;100691.47;1622105;84;26042;-66
2022/10/04 18:19:43;;;;;;;12.33;6.75;;;;;;;11.13;76.37;100695.30;1643235;86;25706;-67
2022/10/04 18:22:17;;;;;;;11.93;6.30;;;;;;;11.07;76.43;100695.18;1626140;86;28092;-67
2022/10/04 18:24:47;;;;;;;10.80;6.60;;;;;;;11.02;76.71;100695.28;1629691;87;25741;-68
2022/10/04 18:27:24;;;;;;;11.85;6.35;;;;;;;10.98;76.75;100699.15;1612592;87;25728;-66
2022/10/04 18:30:14;;;;;;;13.32;6.85;;;;;;;10.94;76.86;100704.89;1620530;87;26642;-66
2022/10/04 18:32:50;;;;;;;12.55;6.20;;;;;;;10.92;77.13;100709.02;1613046;87;25488;-67
2022/10/04 18:35:28;;;;;;;10.60;5.97;;;;;;;10.87;77.43;100709.91;1615654;87;28159;-67